createdAt,value
2022-08-21T00:05:10.082Z,11.8
2022-08-21T00:11:03.726Z,13.1
2022-08-21T00:17:01.687Z,12.1
2022-08-21T00:22:52.654Z,12.6
2022-08-21T00:28:48.117Z,11.9
2022-08-21T00:34:39.783Z,11.8
2022-08-21T00:40:31.802Z,12.3
2022-08-21T00:46:22.455Z,11.5
2022-08-21T00:52:21.407Z,12.3
2022-08-21T00:58:14.359Z,9.8
2022-08-21T01:04:09.199Z,13.1
2022-08-21T01:10:00.782Z,11
2022-08-21T01:15:54.779Z,12.5
2022-08-21T01:21:47.682Z,10.8
2022-08-21T01:27:41.655Z,12.9
2022-08-21T01:33:35.929Z,12.5
2022-08-21T01:39:29.101Z,12.4
2022-08-21T01:45:20.138Z,11.7
2022-08-21T01:51:12.585Z,9.8
2022-08-21T01:57:03.293Z,12.5
2022-08-21T02:02:56.963Z,12
2022-08-21T02:08:49.604Z,10.9
2022-08-21T02:14:42.862Z,11.6
2022-08-21T02:20:33.434Z,11.1
2022-08-21T02:26:25.832Z,12.3
2022-08-21T02:32:19.017Z,14.7
2022-08-21T02:38:16.160Z,14.5
2022-08-21T02:44:07.003Z,10.9
2022-08-21T02:49:58.489Z,11.8
2022-08-21T02:55:50.325Z,11.4
2022-08-21T03:01:41.919Z,13.1
2022-08-21T03:07:33.539Z,12.6
2022-08-21T03:13:24.262Z,14.3
2022-08-21T03:19:15.467Z,12.3
2022-08-21T03:25:15.176Z,11
2022-08-21T03:31:06.566Z,11.9
2022-08-21T03:36:58.784Z,10.9
2022-08-21T03:42:49.530Z,10.7
2022-08-21T03:48:40.437Z,10.5
2022-08-21T03:54:33.531Z,12.3
2022-08-21T04:00:24.673Z,12.4
2022-08-21T04:06:17.066Z,12.3
2022-08-21T04:12:10.486Z,15
2022-08-21T04:18:03.313Z,9.9
2022-08-21T04:23:54.050Z,10
2022-08-21T04:29:46.261Z,14.3
2022-08-21T04:35:38.338Z,12.4
2022-08-21T04:55:50.862Z,13.4
2022-08-21T05:15:50.810Z,11.6
2022-08-21T05:29:20.077Z,12.9
2022-08-21T05:42:34.861Z,10.7
2022-08-21T05:56:01.828Z,13.9
2022-08-21T06:01:57.374Z,14.9
2022-08-21T06:08:05.380Z,11.3
2022-08-21T06:14:07.735Z,12.5
2022-08-21T06:20:06.325Z,11.7
2022-08-21T06:26:04.216Z,14.2
2022-08-21T06:32:07.109Z,15.7
2022-08-21T06:38:09.023Z,15.6
2022-08-21T06:44:14.295Z,12.6
2022-08-21T06:50:25.648Z,14.7
2022-08-21T07:03:23.613Z,18.8
2022-08-21T07:09:42.910Z,14.1
2022-08-21T07:15:57.366Z,18.1
2022-08-21T07:21:55.949Z,19.4
2022-08-21T07:27:55.309Z,17.5
2022-08-21T07:34:15.890Z,15.6
2022-08-21T07:40:20.250Z,16.3
2022-08-21T07:46:13.341Z,15.5
2022-08-21T07:52:34.010Z,16.1
2022-08-21T08:05:18.911Z,18.1
2022-08-21T08:17:41.812Z,16.5
2022-08-21T08:23:43.336Z,13.7
2022-08-21T08:29:36.165Z,16.3
2022-08-21T08:35:32.215Z,16.1
2022-08-21T08:42:02.604Z,14.4
2022-08-21T08:48:20.544Z,15.4
2022-08-21T08:54:15.209Z,12.7
2022-08-21T09:00:09.884Z,11.3
2022-08-21T09:06:01.645Z,12.7
2022-08-21T09:11:53.625Z,12.2
2022-08-21T09:17:47.061Z,11
2022-08-21T09:23:39.272Z,11.3
2022-08-21T09:36:28.504Z,9.5
2022-08-21T09:42:21.107Z,8.1
2022-08-21T09:48:12.764Z,10.6
2022-08-21T09:54:16.151Z,9.6
2022-08-21T10:00:12.063Z,11.2
2022-08-21T10:06:03.747Z,10.9
2022-08-21T10:12:00.353Z,13.1
2022-08-21T10:17:52.592Z,10.2
2022-08-21T10:23:57.619Z,8.4
2022-08-21T10:30:09.605Z,7.4
2022-08-21T10:36:13.720Z,11
2022-08-21T10:42:23.648Z,9.8
2022-08-21T10:48:28.625Z,9.8
2022-08-21T10:54:29.332Z,8.6
2022-08-21T11:00:25.622Z,9.1
2022-08-21T11:06:40.069Z,8
2022-08-21T11:12:47.655Z,8.7
2022-08-21T11:18:59.071Z,9.9
2022-08-21T11:25:11.156Z,10
2022-08-21T11:31:02.583Z,10.5
2022-08-21T11:37:10.575Z,8
2022-08-21T11:49:29.655Z,6.7
2022-08-21T11:55:28.575Z,6.6
2022-08-21T12:01:25.975Z,4.6
2022-08-21T12:07:29.113Z,7
2022-08-21T12:13:55.350Z,7
2022-08-21T12:19:50.152Z,6.6
2022-08-21T12:25:49.644Z,5.2
2022-08-21T12:31:42.739Z,5.8
2022-08-21T12:37:56.189Z,4.9
2022-08-21T12:44:01.241Z,7.7
2022-08-21T12:49:55.941Z,5.5
2022-08-21T12:55:46.631Z,5.9
2022-08-21T13:01:57.699Z,5.3
2022-08-21T13:14:21.304Z,5.9
2022-08-21T13:20:15.770Z,4.7
2022-08-21T13:26:08.478Z,6.7
2022-08-21T13:32:22.667Z,6.4
2022-08-21T13:38:30.737Z,8.9
2022-08-21T13:50:58.738Z,9.6
2022-08-21T14:03:25.651Z,7.4
2022-08-21T14:09:45.204Z,5.7
2022-08-21T14:15:35.729Z,21.1
2022-08-21T14:21:31.689Z,10.6
2022-08-21T14:27:25.445Z,20.2
2022-08-21T14:39:49.882Z,4.3
2022-08-21T14:45:42.379Z,6.7
2022-08-21T14:51:36.342Z,7
2022-08-21T14:57:46.160Z,5.7
2022-08-21T15:03:39.400Z,8
2022-08-21T15:09:31.019Z,6.1
2022-08-21T15:15:24.748Z,6.1
2022-08-21T15:21:19.438Z,6.6
2022-08-21T15:27:24.853Z,5.9
2022-08-21T15:33:17.363Z,5.7
2022-08-21T15:39:08.842Z,5.6
2022-08-21T15:45:00.641Z,7.8
2022-08-21T15:50:52.010Z,7.9
2022-08-21T15:56:43.902Z,6.5
2022-08-21T16:02:35.088Z,5.7
2022-08-21T16:08:26.330Z,7.2
2022-08-21T16:14:18.467Z,7.8
2022-08-21T16:20:10.187Z,6.9
2022-08-21T16:26:05.881Z,7.6
2022-08-21T16:32:03.841Z,8
2022-08-21T16:37:59.338Z,7.8
2022-08-21T16:43:51.066Z,6.7
2022-08-21T16:49:45.414Z,7.4
2022-08-21T16:55:37.800Z,7.5
2022-08-21T17:01:31.054Z,4.1
2022-08-21T17:07:23.478Z,6.3
2022-08-21T17:13:16.188Z,5.7
2022-08-21T17:19:08.231Z,5.6
2022-08-21T17:24:59.542Z,6.8
2022-08-21T17:30:52.292Z,6
2022-08-21T17:36:46.727Z,5
2022-08-21T17:42:38.550Z,6
2022-08-21T17:48:32.484Z,6.1
2022-08-21T17:54:24.484Z,6
2022-08-21T18:00:17.215Z,4.9
2022-08-21T18:06:11.488Z,5.6
2022-08-21T18:12:08.987Z,5.4
2022-08-21T18:18:02.245Z,4.2
2022-08-21T18:23:52.597Z,5.7
2022-08-21T18:29:54.143Z,4.7
2022-08-21T18:35:47.170Z,6.1
2022-08-21T18:41:39.232Z,5.9
2022-08-21T18:47:30.190Z,7.5
2022-08-21T18:53:31.389Z,8
2022-08-21T18:59:28.546Z,4.9
2022-08-21T19:05:22.990Z,6.5
2022-08-21T22:48:35.575Z,6.6
2022-08-21T22:54:27.009Z,6.3
2022-08-21T23:00:22.259Z,6
2022-08-21T23:06:17.892Z,6.3
2022-08-21T23:12:36.359Z,7.4
2022-08-21T23:18:31.588Z,6.1
2022-08-21T23:24:25.019Z,6.4
2022-08-21T23:30:20.471Z,6.7
2022-08-21T23:36:12.421Z,7.4
2022-08-21T23:42:06.165Z,7.1
2022-08-21T23:47:59.549Z,6
2022-08-21T23:53:55.473Z,7.1
2022-08-21T23:59:46.562Z,6.2
